sensor_id;sensor_type;location;lat;lon;timestamp;pressure;altitude;pressure_sealevel;temperature;humidity
38558;BME280;24333;42.626;23.308;2024-02-23T00:01:55;70522.75;;;-148.95;88.19
38558;BME280;24333;42.626;23.308;2024-02-23T00:04:20;70514.47;;;-148.95;87.23
38558;BME280;24333;42.626;23.308;2024-02-23T00:06:46;70499.94;;;-148.95;85.47
38558;BME280;24333;42.626;23.308;2024-02-23T00:09:11;70508.22;;;-148.95;85.74
38558;BME280;24333;42.626;23.308;2024-02-23T00:11:40;70506.16;;;-148.95;85.40
38558;BME280;24333;42.626;23.308;2024-02-23T00:14:10;70510.31;;;-148.95;85.15
38558;BME280;24333;42.626;23.308;2024-02-23T00:16:39;70502.00;;;-148.95;83.16
38558;BME280;24333;42.626;23.308;2024-02-23T00:19:08;70491.63;;;-148.95;84.43
38558;BME280;24333;42.626;23.308;2024-02-23T00:21:38;70497.84;;;-148.95;85.86
38558;BME280;24333;42.626;23.308;2024-02-23T00:24:04;70497.84;;;-148.95;84.81
38558;BME280;24333;42.626;23.308;2024-02-23T00:26:30;70512.38;;;-148.95;84.55
38558;BME280;24333;42.626;23.308;2024-02-23T00:28:55;70499.94;;;-148.95;84.09
38558;BME280;24333;42.626;23.308;2024-02-23T00:31:21;70491.63;;;-148.95;84.77
38558;BME280;24333;42.626;23.308;2024-02-23T00:33:46;70499.94;;;-148.95;84.82
38558;BME280;24333;42.626;23.308;2024-02-23T00:36:12;70487.47;;;-148.95;84.38
38558;BME280;24333;42.626;23.308;2024-02-23T00:38:38;70485.41;;;-148.95;84.07
38558;BME280;24333;42.626;23.308;2024-02-23T00:41:03;70493.72;;;-148.95;83.92
38558;BME280;24333;42.626;23.308;2024-02-23T00:43:28;70485.41;;;-148.95;84.60
38558;BME280;24333;42.626;23.308;2024-02-23T00:45:55;70493.72;;;-148.95;84.98
38558;BME280;24333;42.626;23.308;2024-02-23T00:48:20;70475.03;;;-148.95;86.05
38558;BME280;24333;42.626;23.308;2024-02-23T00:50:46;70483.34;;;-148.95;85.36
38558;BME280;24333;42.626;23.308;2024-02-23T00:53:11;70472.97;;;-148.95;83.17
38558;BME280;24333;42.626;23.308;2024-02-23T00:55:37;70470.88;;;-148.95;83.14
38558;BME280;24333;42.626;23.308;2024-02-23T00:58:02;70470.88;;;-148.95;82.76
38558;BME280;24333;42.626;23.308;2024-02-23T01:00:28;70466.72;;;-148.95;83.17
38558;BME280;24333;42.626;23.308;2024-02-23T01:02:54;70466.72;;;-148.95;81.61
38558;BME280;24333;42.626;23.308;2024-02-23T01:05:20;70452.22;;;-148.95;81.36
38558;BME280;24333;42.626;23.308;2024-02-23T01:07:45;70448.06;;;-148.95;82.57
38558;BME280;24333;42.626;23.308;2024-02-23T01:10:13;70450.13;;;-148.95;82.49
38558;BME280;24333;42.626;23.308;2024-02-23T01:12:39;70462.59;;;-148.95;80.35
38558;BME280;24333;42.626;23.308;2024-02-23T01:15:04;70456.38;;;-148.95;80.62
38558;BME280;24333;42.626;23.308;2024-02-23T01:17:30;70468.81;;;-148.95;80.89
38558;BME280;24333;42.626;23.308;2024-02-23T01:19:55;70462.59;;;-148.95;81.16
38558;BME280;24333;42.626;23.308;2024-02-23T01:22:21;70468.81;;;-148.95;82.41
38558;BME280;24333;42.626;23.308;2024-02-23T01:24:46;70458.44;;;-148.95;81.96
38558;BME280;24333;42.626;23.308;2024-02-23T01:27:11;70470.88;;;-148.95;83.28
38558;BME280;24333;42.626;23.308;2024-02-23T01:29:37;70462.59;;;-148.95;82.55
38558;BME280;24333;42.626;23.308;2024-02-23T01:32:02;70466.72;;;-148.95;82.57
38558;BME280;24333;42.626;23.308;2024-02-23T01:34:28;70462.59;;;-148.95;82.34
38558;BME280;24333;42.626;23.308;2024-02-23T01:36:53;70456.38;;;-148.95;82.97
38558;BME280;24333;42.626;23.308;2024-02-23T01:39:19;70454.28;;;-148.95;83.27
38558;BME280;24333;42.626;23.308;2024-02-23T01:41:45;70456.38;;;-148.95;83.96
38558;BME280;24333;42.626;23.308;2024-02-23T01:44:11;70464.66;;;-148.95;84.68
38558;BME280;24333;42.626;23.308;2024-02-23T01:46:37;70456.38;;;-148.95;84.65
38558;BME280;24333;42.626;23.308;2024-02-23T01:49:03;70458.44;;;-148.95;85.14
38558;BME280;24333;42.626;23.308;2024-02-23T01:51:29;70456.38;;;-148.95;85.62
38558;BME280;24333;42.626;23.308;2024-02-23T01:53:55;70454.28;;;-148.95;86.32
38558;BME280;24333;42.626;23.308;2024-02-23T01:56:20;70450.13;;;-148.95;85.79
38558;BME280;24333;42.626;23.308;2024-02-23T01:58:46;70456.38;;;-148.95;85.21
38558;BME280;24333;42.626;23.308;2024-02-23T02:01:12;70452.22;;;-148.95;84.90
38558;BME280;24333;42.626;23.308;2024-02-23T02:03:40;70454.28;;;-148.95;85.48
38558;BME280;24333;42.626;23.308;2024-02-23T02:06:07;70460.50;;;-148.95;83.43
38558;BME280;24333;42.626;23.308;2024-02-23T02:08:36;70456.38;;;-148.95;83.06
38558;BME280;24333;42.626;23.308;2024-02-23T02:11:03;70452.22;;;-148.95;81.31
38558;BME280;24333;42.626;23.308;2024-02-23T02:13:28;70446.00;;;-148.95;81.54
38558;BME280;24333;42.626;23.308;2024-02-23T02:15:54;70441.84;;;-148.95;80.84
38558;BME280;24333;42.626;23.308;2024-02-23T02:18:19;70433.53;;;-148.95;80.66
38558;BME280;24333;42.626;23.308;2024-02-23T02:20:53;70435.63;;;-148.95;79.74
38558;BME280;24333;42.626;23.308;2024-02-23T02:23:19;70437.69;;;-148.95;78.71
38558;BME280;24333;42.626;23.308;2024-02-23T02:25:45;70437.69;;;-148.95;78.66
38558;BME280;24333;42.626;23.308;2024-02-23T02:28:11;70433.53;;;-148.95;78.77
38558;BME280;24333;42.626;23.308;2024-02-23T02:30:37;70443.91;;;-148.95;79.57
38558;BME280;24333;42.626;23.308;2024-02-23T02:33:03;70446.00;;;-148.95;78.60
38558;BME280;24333;42.626;23.308;2024-02-23T02:35:28;70456.38;;;-148.95;79.73
38558;BME280;24333;42.626;23.308;2024-02-23T02:37:53;70458.44;;;-148.95;80.77
38558;BME280;24333;42.626;23.308;2024-02-23T02:40:19;70443.91;;;-148.95;81.48
38558;BME280;24333;42.626;23.308;2024-02-23T02:42:44;70452.22;;;-148.95;80.96
38558;BME280;24333;42.626;23.308;2024-02-23T02:45:10;70450.13;;;-148.95;81.57
38558;BME280;24333;42.626;23.308;2024-02-23T02:47:35;70446.00;;;-148.95;81.05
38558;BME280;24333;42.626;23.308;2024-02-23T02:50:01;70446.00;;;-148.95;81.47
38558;BME280;24333;42.626;23.308;2024-02-23T02:52:27;70435.63;;;-148.95;81.94
38558;BME280;24333;42.626;23.308;2024-02-23T02:54:53;70452.22;;;-148.95;82.46
38558;BME280;24333;42.626;23.308;2024-02-23T02:57:19;70456.38;;;-148.95;84.07
38558;BME280;24333;42.626;23.308;2024-02-23T02:59:44;70448.06;;;-148.95;84.17
38558;BME280;24333;42.626;23.308;2024-02-23T03:02:11;70456.38;;;-148.95;84.70
38558;BME280;24333;42.626;23.308;2024-02-23T03:04:36;70456.38;;;-148.95;84.98
38558;BME280;24333;42.626;23.308;2024-02-23T03:07:02;70450.13;;;-148.95;85.26
38558;BME280;24333;42.626;23.308;2024-02-23T03:09:27;70456.38;;;-148.95;87.14
38558;BME280;24333;42.626;23.308;2024-02-23T03:11:53;70441.84;;;-148.95;85.98
38558;BME280;24333;42.626;23.308;2024-02-23T03:14:18;70441.84;;;-148.95;86.59
38558;BME280;24333;42.626;23.308;2024-02-23T03:16:46;70443.91;;;-148.95;85.88
38558;BME280;24333;42.626;23.308;2024-02-23T03:19:13;70441.84;;;-148.95;85.17
38558;BME280;24333;42.626;23.308;2024-02-23T03:21:38;70452.22;;;-148.95;86.41
38558;BME280;24333;42.626;23.308;2024-02-23T03:24:04;70439.75;;;-148.95;86.64
38558;BME280;24333;42.626;23.308;2024-02-23T03:27:03;70462.59;;;-148.95;87.63
38558;BME280;24333;42.626;23.308;2024-02-23T03:29:29;70450.13;;;-148.95;87.04
38558;BME280;24333;42.626;23.308;2024-02-23T03:31:55;70452.22;;;-148.95;87.36
38558;BME280;24333;42.626;23.308;2024-02-23T03:34:20;70456.38;;;-148.95;88.15
38558;BME280;24333;42.626;23.308;2024-02-23T03:36:46;70452.22;;;-148.95;87.84
38558;BME280;24333;42.626;23.308;2024-02-23T03:39:11;70460.50;;;-148.95;88.79
38558;BME280;24333;42.626;23.308;2024-02-23T03:41:37;70462.59;;;-148.95;88.18
38558;BME280;24333;42.626;23.308;2024-02-23T03:44:02;70466.72;;;-148.95;88.04
38558;BME280;24333;42.626;23.308;2024-02-23T03:46:28;70460.50;;;-148.95;88.73
38558;BME280;24333;42.626;23.308;2024-02-23T03:48:53;70462.59;;;-148.95;89.45
38558;BME280;24333;42.626;23.308;2024-02-23T03:51:19;70468.81;;;-148.95;89.47
38558;BME280;24333;42.626;23.308;2024-02-23T03:53:44;70466.72;;;-148.95;90.34
38558;BME280;24333;42.626;23.308;2024-02-23T03:56:09;70464.66;;;-148.95;90.07
38558;BME280;24333;42.626;23.308;2024-02-23T03:58:35;70464.66;;;-148.95;90.03
38558;BME280;24333;42.626;23.308;2024-02-23T04:01:00;70466.72;;;-148.95;90.46
38558;BME280;24333;42.626;23.308;2024-02-23T04:03:26;70466.72;;;-148.95;89.91
38558;BME280;24333;42.626;23.308;2024-02-23T04:05:56;70468.81;;;-148.95;91.28
38558;BME280;24333;42.626;23.308;2024-02-23T04:08:31;70466.72;;;-148.95;90.68
38558;BME280;24333;42.626;23.308;2024-02-23T04:10:59;70468.81;;;-148.95;90.82
38558;BME280;24333;42.626;23.308;2024-02-23T04:13:24;70464.66;;;-148.95;90.41
38558;BME280;24333;42.626;23.308;2024-02-23T04:15:51;70479.19;;;-148.95;90.05
38558;BME280;24333;42.626;23.308;2024-02-23T04:18:39;70487.47;;;-148.95;91.98
38558;BME280;24333;42.626;23.308;2024-02-23T04:21:05;70491.63;;;-148.95;91.02
38558;BME280;24333;42.626;23.308;2024-02-23T04:23:32;70489.56;;;-148.95;90.52
38558;BME280;24333;42.626;23.308;2024-02-23T04:25:59;70491.63;;;-148.95;90.45
38558;BME280;24333;42.626;23.308;2024-02-23T04:28:25;70510.31;;;-148.95;91.44
38558;BME280;24333;42.626;23.308;2024-02-23T04:30:56;70506.16;;;-148.95;91.62
38558;BME280;24333;42.626;23.308;2024-02-23T04:33:27;70518.59;;;-148.95;90.62
38558;BME280;24333;42.626;23.308;2024-02-23T04:35:52;70535.22;;;-148.95;91.24
38558;BME280;24333;42.626;23.308;2024-02-23T04:38:18;70533.13;;;-148.95;91.65
38558;BME280;24333;42.626;23.308;2024-02-23T04:40:46;70543.50;;;-148.95;91.65
38558;BME280;24333;42.626;23.308;2024-02-23T04:43:12;70537.28;;;-148.95;91.00
38558;BME280;24333;42.626;23.308;2024-02-23T04:45:37;70555.94;;;-148.95;92.03
38558;BME280;24333;42.626;23.308;2024-02-23T04:48:03;70549.72;;;-148.95;92.32
38558;BME280;24333;42.626;23.308;2024-02-23T04:50:29;70558.03;;;-148.95;93.29
38558;BME280;24333;42.626;23.308;2024-02-23T04:52:54;70547.66;;;-148.95;92.82
38558;BME280;24333;42.626;23.308;2024-02-23T04:55:20;70547.66;;;-148.95;92.90
38558;BME280;24333;42.626;23.308;2024-02-23T04:58:12;70566.31;;;-148.95;93.22
38558;BME280;24333;42.626;23.308;2024-02-23T05:00:38;70570.47;;;-148.95;93.02
38558;BME280;24333;42.626;23.308;2024-02-23T05:03:05;70578.78;;;-148.95;95.20
38558;BME280;24333;42.626;23.308;2024-02-23T05:05:31;70582.94;;;-148.95;94.23
38558;BME280;24333;42.626;23.308;2024-02-23T05:07:57;70585.00;;;-148.95;95.01
38558;BME280;24333;42.626;23.308;2024-02-23T05:10:24;70595.38;;;-148.95;95.18
38558;BME280;24333;42.626;23.308;2024-02-23T05:12:49;70589.16;;;-148.95;95.07
38558;BME280;24333;42.626;23.308;2024-02-23T05:15:15;70599.53;;;-148.95;95.77
38558;BME280;24333;42.626;23.308;2024-02-23T05:17:40;70599.53;;;-148.95;95.68
38558;BME280;24333;42.626;23.308;2024-02-23T05:20:27;70611.97;;;-148.95;95.38
38558;BME280;24333;42.626;23.308;2024-02-23T05:23:14;70616.13;;;-148.95;96.42
38558;BME280;24333;42.626;23.308;2024-02-23T05:25:41;70630.66;;;-148.95;98.31
38558;BME280;24333;42.626;23.308;2024-02-23T05:28:15;70626.50;;;-148.95;98.73
38558;BME280;24333;42.626;23.308;2024-02-23T05:30:41;70632.72;;;-148.95;98.16
38558;BME280;24333;42.626;23.308;2024-02-23T05:33:07;70628.56;;;-148.95;99.16
38558;BME280;24333;42.626;23.308;2024-02-23T05:35:45;70624.41;;;-148.95;99.62
38558;BME280;24333;42.626;23.308;2024-02-23T05:38:10;70630.66;;;-148.95;99.39
38558;BME280;24333;42.626;23.308;2024-02-23T05:40:36;70630.66;;;-148.95;99.75
38558;BME280;24333;42.626;23.308;2024-02-23T05:43:01;70622.34;;;-148.95;99.15
38558;BME280;24333;42.626;23.308;2024-02-23T05:45:26;70616.13;;;-148.95;98.98
38558;BME280;24333;42.626;23.308;2024-02-23T05:47:55;70616.13;;;-148.95;97.83
38558;BME280;24333;42.626;23.308;2024-02-23T05:50:20;70591.22;;;-148.95;97.58
38558;BME280;24333;42.626;23.308;2024-02-23T05:52:45;70597.44;;;-148.95;98.60
38558;BME280;24333;42.626;23.308;2024-02-23T05:55:11;70578.78;;;-148.95;97.81
38558;BME280;24333;42.626;23.308;2024-02-23T05:57:36;70570.47;;;-148.95;97.17
38558;BME280;24333;42.626;23.308;2024-02-23T06:00:02;70566.31;;;-148.95;96.67
38558;BME280;24333;42.626;23.308;2024-02-23T06:02:29;70545.56;;;-148.95;97.22
38558;BME280;24333;42.626;23.308;2024-02-23T06:04:56;70543.50;;;-148.95;95.44
38558;BME280;24333;42.626;23.308;2024-02-23T06:07:22;70533.13;;;-148.95;95.67
38558;BME280;24333;42.626;23.308;2024-02-23T06:09:54;70528.97;;;-148.95;93.85
38558;BME280;24333;42.626;23.308;2024-02-23T06:12:20;70506.16;;;-148.95;92.91
38558;BME280;24333;42.626;23.308;2024-02-23T06:14:46;70502.00;;;-148.95;93.26
38558;BME280;24333;42.626;23.308;2024-02-23T06:17:13;70491.63;;;-148.95;93.10
38558;BME280;24333;42.626;23.308;2024-02-23T06:19:39;70487.47;;;-148.95;91.28
38558;BME280;24333;42.626;23.308;2024-02-23T06:22:04;70483.34;;;-148.95;90.45
38558;BME280;24333;42.626;23.308;2024-02-23T06:24:29;70466.72;;;-148.95;91.04
38558;BME280;24333;42.626;23.308;2024-02-23T06:26:55;70460.50;;;-148.95;90.08
38558;BME280;24333;42.626;23.308;2024-02-23T06:29:20;70450.13;;;-148.95;87.76
38558;BME280;24333;42.626;23.308;2024-02-23T06:31:46;70454.28;;;-148.95;88.07
38558;BME280;24333;42.626;23.308;2024-02-23T06:34:15;70437.69;;;-148.95;87.31
38558;BME280;24333;42.626;23.308;2024-02-23T06:36:43;70414.88;;;-148.95;87.00
38558;BME280;24333;42.626;23.308;2024-02-23T06:39:08;70410.72;;;-148.95;87.65
38558;BME280;24333;42.626;23.308;2024-02-23T06:41:34;70402.41;;;-148.95;87.30
38558;BME280;24333;42.626;23.308;2024-02-23T06:43:59;70383.75;;;-148.95;85.53
38558;BME280;24333;42.626;23.308;2024-02-23T06:46:31;70383.75;;;-148.95;85.12
38558;BME280;24333;42.626;23.308;2024-02-23T06:49:01;70371.28;;;-148.95;83.96
38558;BME280;24333;42.626;23.308;2024-02-23T06:51:26;70358.84;;;-148.95;83.60
38558;BME280;24333;42.626;23.308;2024-02-23T06:53:51;70354.69;;;-148.95;81.82
38558;BME280;24333;42.626;23.308;2024-02-23T06:56:17;70338.09;;;-148.95;82.04
38558;BME280;24333;42.626;23.308;2024-02-23T06:58:42;70331.88;;;-148.95;81.92
38558;BME280;24333;42.626;23.308;2024-02-23T07:01:08;70323.56;;;-148.95;81.05
38558;BME280;24333;42.626;23.308;2024-02-23T07:03:36;70327.72;;;-148.95;79.25
38558;BME280;24333;42.626;23.308;2024-02-23T07:06:02;70344.31;;;-148.95;79.71
38558;BME280;24333;42.626;23.308;2024-02-23T07:08:28;70331.88;;;-148.95;79.96
38558;BME280;24333;42.626;23.308;2024-02-23T07:10:53;70331.88;;;-148.95;79.54
38558;BME280;24333;42.626;23.308;2024-02-23T07:13:19;70325.66;;;-148.95;79.32
38558;BME280;24333;42.626;23.308;2024-02-23T07:15:45;70331.88;;;-148.95;78.68
38558;BME280;24333;42.626;23.308;2024-02-23T07:18:10;70329.81;;;-148.95;78.66
38558;BME280;24333;42.626;23.308;2024-02-23T07:20:36;70338.09;;;-148.95;79.51
38558;BME280;24333;42.626;23.308;2024-02-23T07:23:02;70323.56;;;-148.95;78.91
38558;BME280;24333;42.626;23.308;2024-02-23T07:25:27;70333.94;;;-148.95;78.83
38558;BME280;24333;42.626;23.308;2024-02-23T07:27:53;70354.69;;;-148.95;78.80
38558;BME280;24333;42.626;23.308;2024-02-23T07:30:18;70331.88;;;-148.95;78.31
38558;BME280;24333;42.626;23.308;2024-02-23T07:32:44;70327.72;;;-148.95;78.71
38558;BME280;24333;42.626;23.308;2024-02-23T07:35:10;70298.69;;;-148.95;79.02
38558;BME280;24333;42.626;23.308;2024-02-23T07:37:36;70298.69;;;-148.95;77.63
38558;BME280;24333;42.626;23.308;2024-02-23T07:40:05;70294.53;;;-148.95;77.26
38558;BME280;24333;42.626;23.308;2024-02-23T07:42:32;70286.22;;;-148.95;76.45
38558;BME280;24333;42.626;23.308;2024-02-23T07:44:57;70277.94;;;-148.95;76.73
38558;BME280;24333;42.626;23.308;2024-02-23T07:47:24;70271.72;;;-148.95;75.53
38558;BME280;24333;42.626;23.308;2024-02-23T07:49:52;70269.63;;;-148.95;75.46
38558;BME280;24333;42.626;23.308;2024-02-23T07:52:17;70242.66;;;-148.95;74.94
38558;BME280;24333;42.626;23.308;2024-02-23T07:54:43;70234.38;;;-148.95;73.32
38558;BME280;24333;42.626;23.308;2024-02-23T07:57:08;70240.59;;;-148.95;74.44
38558;BME280;24333;42.626;23.308;2024-02-23T07:59:34;70255.13;;;-148.95;74.36
38558;BME280;24333;42.626;23.308;2024-02-23T08:01:59;70261.34;;;-148.95;74.57
38558;BME280;24333;42.626;23.308;2024-02-23T08:04:24;70246.81;;;-148.95;75.23
38558;BME280;24333;42.626;23.308;2024-02-23T08:06:50;70248.88;;;-148.95;75.69
38558;BME280;24333;42.626;23.308;2024-02-23T08:09:18;70246.81;;;-148.95;76.58
38558;BME280;24333;42.626;23.308;2024-02-23T08:11:44;70253.03;;;-148.95;77.47
38558;BME280;24333;42.626;23.308;2024-02-23T08:14:09;70257.19;;;-148.95;77.40
38558;BME280;24333;42.626;23.308;2024-02-23T08:16:34;70257.19;;;-148.95;77.34
38558;BME280;24333;42.626;23.308;2024-02-23T08:19:00;70267.56;;;-148.95;78.94
38558;BME280;24333;42.626;23.308;2024-02-23T08:21:25;70265.47;;;-148.95;78.63
38558;BME280;24333;42.626;23.308;2024-02-23T08:23:54;70244.75;;;-148.95;78.62
38558;BME280;24333;42.626;23.308;2024-02-23T08:26:19;70217.78;;;-148.95;79.63
38558;BME280;24333;42.626;23.308;2024-02-23T08:28:45;70209.47;;;-148.95;80.67
38558;BME280;24333;42.626;23.308;2024-02-23T08:31:10;70188.72;;;-148.95;79.16
38558;BME280;24333;42.626;23.308;2024-02-23T08:33:36;70172.13;;;-148.95;77.65
38558;BME280;24333;42.626;23.308;2024-02-23T08:36:01;70138.94;;;-148.95;76.08
38558;BME280;24333;42.626;23.308;2024-02-23T08:38:29;70126.47;;;-148.95;76.30
38558;BME280;24333;42.626;23.308;2024-02-23T08:40:55;70091.22;;;-148.95;74.25
38558;BME280;24333;42.626;23.308;2024-02-23T08:43:20;70087.06;;;-148.95;74.22
38558;BME280;24333;42.626;23.308;2024-02-23T08:45:52;70070.47;;;-148.95;70.91
38558;BME280;24333;42.626;23.308;2024-02-23T08:48:17;70058.03;;;-148.95;71.44
38558;BME280;24333;42.626;23.308;2024-02-23T08:50:43;70024.84;;;-148.95;70.01
38558;BME280;24333;42.626;23.308;2024-02-23T08:53:08;70012.38;;;-148.95;69.89
38558;BME280;24333;42.626;23.308;2024-02-23T08:55:34;69995.78;;;-148.95;67.33
38558;BME280;24333;42.626;23.308;2024-02-23T08:57:59;70002.00;;;-148.95;68.48
38558;BME280;24333;42.626;23.308;2024-02-23T09:00:25;69989.56;;;-148.95;68.34
38558;BME280;24333;42.626;23.308;2024-02-23T09:02:53;69966.75;;;-148.95;66.46
38558;BME280;24333;42.626;23.308;2024-02-23T09:05:19;69956.38;;;-148.95;66.01
38558;BME280;24333;42.626;23.308;2024-02-23T09:07:45;69939.78;;;-148.95;65.06
38558;BME280;24333;42.626;23.308;2024-02-23T09:10:11;69954.31;;;-148.95;62.39
38558;BME280;24333;42.626;23.308;2024-02-23T09:12:37;69943.94;;;-148.95;62.77
38558;BME280;24333;42.626;23.308;2024-02-23T09:15:02;69943.94;;;-148.95;62.61
38558;BME280;24333;42.626;23.308;2024-02-23T09:17:28;69946.00;;;-148.95;61.07
38558;BME280;24333;42.626;23.308;2024-02-23T09:19:53;69948.06;;;-148.95;61.90
38558;BME280;24333;42.626;23.308;2024-02-23T09:22:18;69948.06;;;-148.95;63.35
38558;BME280;24333;42.626;23.308;2024-02-23T09:24:44;69927.31;;;-148.95;59.45
38558;BME280;24333;42.626;23.308;2024-02-23T09:27:09;69923.19;;;-148.95;57.27
38558;BME280;24333;42.626;23.308;2024-02-23T09:29:35;69900.38;;;-148.95;58.15
38558;BME280;24333;42.626;23.308;2024-02-23T09:32:00;69894.13;;;-148.95;58.37
38558;BME280;24333;42.626;23.308;2024-02-23T09:34:26;69883.75;;;-148.95;53.29
38558;BME280;24333;42.626;23.308;2024-02-23T09:36:51;69873.41;;;-148.95;54.23
38558;BME280;24333;42.626;23.308;2024-02-23T09:39:17;69869.25;;;-148.95;54.97
38558;BME280;24333;42.626;23.308;2024-02-23T09:41:42;69852.66;;;-148.95;57.25
38558;BME280;24333;42.626;23.308;2024-02-23T09:44:09;69831.91;;;-148.95;57.15
38558;BME280;24333;42.626;23.308;2024-02-23T09:46:36;69804.94;;;-148.95;55.09
38558;BME280;24333;42.626;23.308;2024-02-23T09:49:03;69769.69;;;-148.95;51.96
38558;BME280;24333;42.626;23.308;2024-02-23T09:51:29;69742.72;;;-148.95;55.67
38558;BME280;24333;42.626;23.308;2024-02-23T09:53:57;69728.19;;;-148.95;47.36
38558;BME280;24333;42.626;23.308;2024-02-23T09:56:26;69736.47;;;-148.95;47.59
38558;BME280;24333;42.626;23.308;2024-02-23T09:58:52;69721.97;;;-148.95;47.20
38558;BME280;24333;42.626;23.308;2024-02-23T10:01:28;69726.09;;;-148.95;46.83
38558;BME280;24333;42.626;23.308;2024-02-23T10:03:57;69707.44;;;-148.95;46.91
38558;BME280;24333;42.626;23.308;2024-02-23T10:06:24;69703.28;;;-148.95;46.23
38558;BME280;24333;42.626;23.308;2024-02-23T10:08:49;69672.19;;;-148.95;46.70
38558;BME280;24333;42.626;23.308;2024-02-23T10:11:18;69690.84;;;-148.95;43.75
38558;BME280;24333;42.626;23.308;2024-02-23T10:13:43;69657.66;;;-148.95;44.27
38558;BME280;24333;42.626;23.308;2024-02-23T10:16:09;69614.09;;;-148.95;46.17
38558;BME280;24333;42.626;23.308;2024-02-23T10:18:34;69578.84;;;-148.95;44.22
38558;BME280;24333;42.626;23.308;2024-02-23T10:21:02;69566.38;;;-148.95;43.15
38558;BME280;24333;42.626;23.308;2024-02-23T10:23:28;69541.50;;;-148.95;42.78
38558;BME280;24333;42.626;23.308;2024-02-23T10:25:54;69524.91;;;-148.95;42.04
38558;BME280;24333;42.626;23.308;2024-02-23T10:28:19;69520.75;;;-148.95;42.42
38558;BME280;24333;42.626;23.308;2024-02-23T10:30:48;69549.78;;;-148.95;40.60
38558;BME280;24333;42.626;23.308;2024-02-23T10:33:14;69547.72;;;-148.95;40.62
38558;BME280;24333;42.626;23.308;2024-02-23T10:35:40;69526.97;;;-148.95;40.84
38558;BME280;24333;42.626;23.308;2024-02-23T10:38:11;69556.03;;;-148.95;41.82
38558;BME280;24333;42.626;23.308;2024-02-23T10:40:41;69564.31;;;-148.95;41.94
38558;BME280;24333;42.626;23.308;2024-02-23T10:43:16;69564.31;;;-148.95;41.86
38558;BME280;24333;42.626;23.308;2024-02-23T10:45:43;69553.94;;;-148.95;41.84
38558;BME280;24333;42.626;23.308;2024-02-23T10:48:09;69547.72;;;-148.95;41.10
38558;BME280;24333;42.626;23.308;2024-02-23T10:50:35;69531.13;;;-148.95;40.97
38558;BME280;24333;42.626;23.308;2024-02-23T10:53:04;69506.25;;;-148.95;41.16
38558;BME280;24333;42.626;23.308;2024-02-23T10:55:32;69491.72;;;-148.95;41.20
38558;BME280;24333;42.626;23.308;2024-02-23T10:57:58;69475.13;;;-148.95;39.46
38558;BME280;24333;42.626;23.308;2024-02-23T11:00:24;69452.31;;;-148.95;40.63
38558;BME280;24333;42.626;23.308;2024-02-23T11:02:53;69454.38;;;-148.95;40.53
38558;BME280;24333;42.626;23.308;2024-02-23T11:05:20;69439.88;;;-148.95;40.66
38558;BME280;24333;42.626;23.308;2024-02-23T11:07:48;69464.75;;;-148.95;40.60
38558;BME280;24333;42.626;23.308;2024-02-23T11:10:15;69444.00;;;-148.95;39.90
38558;BME280;24333;42.626;23.308;2024-02-23T11:12:41;69417.03;;;-148.95;39.49
38558;BME280;24333;42.626;23.308;2024-02-23T11:15:06;69381.78;;;-148.95;40.37
38558;BME280;24333;42.626;23.308;2024-02-23T11:17:35;69375.56;;;-148.95;39.71
38558;BME280;24333;42.626;23.308;2024-02-23T11:20:05;69332.00;;;-148.95;40.05
38558;BME280;24333;42.626;23.308;2024-02-23T11:22:35;69325.78;;;-148.95;40.55
38558;BME280;24333;42.626;23.308;2024-02-23T11:25:06;69327.84;;;-148.95;39.16
38558;BME280;24333;42.626;23.308;2024-02-23T11:27:34;69348.59;;;-148.95;37.63
38558;BME280;24333;42.626;23.308;2024-02-23T11:30:04;69375.56;;;-148.95;39.73
38558;BME280;24333;42.626;23.308;2024-02-23T11:32:41;69346.53;;;-148.95;38.53
38558;BME280;24333;42.626;23.308;2024-02-23T11:35:11;69383.84;;;-148.95;38.41
38558;BME280;24333;42.626;23.308;2024-02-23T11:37:54;69336.16;;;-148.95;41.27
38558;BME280;24333;42.626;23.308;2024-02-23T11:40:27;69352.75;;;-148.95;38.02
38558;BME280;24333;42.626;23.308;2024-02-23T11:42:56;69338.22;;;-148.95;38.12
38558;BME280;24333;42.626;23.308;2024-02-23T11:45:23;69309.19;;;-148.95;39.42
38558;BME280;24333;42.626;23.308;2024-02-23T11:47:49;69246.97;;;-148.95;42.67
38558;BME280;24333;42.626;23.308;2024-02-23T11:50:14;69244.91;;;-148.95;40.05
38558;BME280;24333;42.626;23.308;2024-02-23T11:52:41;69240.75;;;-148.95;35.96
38558;BME280;24333;42.626;23.308;2024-02-23T11:55:07;69269.78;;;-148.95;36.48
38558;BME280;24333;42.626;23.308;2024-02-23T11:57:36;69253.19;;;-148.95;39.99
38558;BME280;24333;42.626;23.308;2024-02-23T12:00:03;69288.44;;;-148.95;36.32
38558;BME280;24333;42.626;23.308;2024-02-23T12:02:29;69271.84;;;-148.95;36.53
38558;BME280;24333;42.626;23.308;2024-02-23T12:04:54;69261.50;;;-148.95;39.71
38558;BME280;24333;42.626;23.308;2024-02-23T12:07:20;69220.00;;;-148.95;37.68
38558;BME280;24333;42.626;23.308;2024-02-23T12:09:47;69222.09;;;-148.95;35.98
38558;BME280;24333;42.626;23.308;2024-02-23T12:12:12;69217.94;;;-148.95;35.74
38558;BME280;24333;42.626;23.308;2024-02-23T12:14:39;69224.16;;;-148.95;36.51
38558;BME280;24333;42.626;23.308;2024-02-23T12:17:05;69205.50;;;-148.95;36.09
38558;BME280;24333;42.626;23.308;2024-02-23T12:19:37;69197.19;;;-148.95;36.49
38558;BME280;24333;42.626;23.308;2024-02-23T12:22:04;69298.81;;;-148.95;35.91
38558;BME280;24333;42.626;23.308;2024-02-23T12:24:29;69244.91;;;-148.95;36.21
38558;BME280;24333;42.626;23.308;2024-02-23T12:26:55;69209.63;;;-148.95;37.00
38558;BME280;24333;42.626;23.308;2024-02-23T12:29:21;69257.34;;;-148.95;34.98